Time;durP1;ratioP1;P1;durP2;ratioP2;P2;SDS_P1;SDS_P2;PMS_P1;PMS_P2;Temp;Humidity;BMP_temperature;BMP_pressure;BME280_temperature;BME280_humidity;BME280_pressure;Samples;Min_cycle;Max_cycle;Signal;HPM_P1;HPM_P2
2022/05/26 00:00:30;;;;;;;;;;;;;;;14.00;100.00;-25460.94;5019369;28;19922;-77
2022/05/26 00:02:55;;;;;;;;;;;;;;;14.00;100.00;-25460.94;5035904;28;19924;-76
2022/05/26 00:05:22;;;;;;;;;;;;;;;14.01;100.00;-25461.09;5034962;28;19921;-78
2022/05/26 00:07:47;;;;;;;;;;;;;;;13.97;100.00;-25460.06;5034991;28;19921;-78
2022/05/26 00:10:13;;;;;;;;;;;;;;;14.00;100.00;-25460.78;5065914;28;19927;-78
2022/05/26 00:12:38;;;;;;;;;;;;;;;14.03;100.00;-25461.53;5076029;28;20056;-79
2022/05/26 00:15:04;;;;;;;;;;;;;;;14.02;100.00;-25461.22;5086571;28;19948;-78
2022/05/26 00:17:30;;;;;;;;;;;;;;;14.02;100.00;-25461.38;5035876;28;19923;-78
2022/05/26 00:19:56;;;;;;;;;;;;;;;14.05;100.00;-25462.25;5053576;28;19917;-79
2022/05/26 00:22:21;;;;;;;;;;;;;;;14.06;100.00;-25462.41;5044765;28;19928;-79
2022/05/26 00:24:48;;;;;;;;;;;;;;;14.05;100.00;-25462.09;5054227;28;20383;-78
2022/05/26 00:27:14;;;;;;;;;;;;;;;13.97;100.00;-25459.91;5070221;28;19916;-79
2022/05/26 00:29:40;;;;;;;;;;;;;;;13.97;100.00;-25459.91;5035045;28;19920;-79
2022/05/26 00:32:05;;;;;;;;;;;;;;;14.01;100.00;-25461.09;5075923;28;19924;-79
2022/05/26 00:34:35;;;;;;;;;;;;;;;13.99;100.00;-25460.66;5056701;28;19971;-78
2022/05/26 00:37:00;;;;;;;;;;;;;;;14.02;100.00;-25461.22;5051139;28;19921;-78
2022/05/26 00:39:27;;;;;;;;;;;;;;;13.99;100.00;-25460.50;5052470;28;20164;-79
2022/05/26 00:41:54;;;;;;;;;;;;;;;14.03;100.00;-25461.53;5052742;28;20285;-80
2022/05/26 00:44:22;;;;;;;;;;;;;;;14.05;100.00;-25462.09;5058515;28;19920;-79
2022/05/26 00:47:02;;;;;;;;;;;;;;;14.07;100.00;-25462.69;5071740;28;20172;-78
2022/05/26 00:49:39;;;;;;;;;;;;;;;14.11;100.00;-25464.00;5092090;28;20002;-76
2022/05/26 00:52:05;;;;;;;;;;;;;;;14.11;100.00;-25463.84;5093213;28;19923;-77
2022/05/26 00:54:32;;;;;;;;;;;;;;;14.16;100.00;-25465.31;5074631;28;19917;-78
2022/05/26 00:57:37;;;;;;;;;;;;;;;14.20;100.00;-25466.47;5041118;28;19923;-77
2022/05/26 01:00:11;;;;;;;;;;;;;;;14.20;100.00;-25466.47;4956502;28;19922;-78
2022/05/26 01:02:38;;;;;;;;;;;;;;;14.23;100.00;-25467.34;4971993;28;20571;-76
2022/05/26 01:05:08;;;;;;;;;;;;;;;14.27;100.00;-25468.53;5015256;28;19924;-79
2022/05/26 01:07:35;;;;;;;;;;;;;;;14.26;100.00;-25468.22;5034940;28;20355;-77
2022/05/26 01:10:03;;;;;;;;;;;;;;;14.25;100.00;-25467.94;5035464;28;20365;-78
2022/05/26 01:12:28;;;;;;;;;;;;;;;14.26;100.00;-25468.22;5035063;28;19923;-79
2022/05/26 01:14:58;;;;;;;;;;;;;;;14.26;100.00;-25468.22;5052640;28;19921;-79
2022/05/26 01:17:39;;;;;;;;;;;;;;;14.25;100.00;-25467.94;5075068;28;19916;-75
2022/05/26 01:20:10;;;;;;;;;;;;;;;14.24;100.00;-25467.66;5075006;28;20283;-77
2022/05/26 01:22:58;;;;;;;;;;;;;;;14.26;100.00;-25468.22;5074956;28;19939;-77
2022/05/26 01:25:39;;;;;;;;;;;;;;;14.26;100.00;-25468.09;5056647;28;19925;-77
2022/05/26 01:28:04;;;;;;;;;;;;;;;14.20;100.00;-25466.47;5059572;28;19927;-77
2022/05/26 01:30:45;;;;;;;;;;;;;;;14.18;100.00;-25465.91;5039049;28;19920;-76
2022/05/26 01:33:41;;;;;;;;;;;;;;;14.15;100.00;-25465.03;5046979;28;20272;-76
2022/05/26 01:36:28;;;;;;;;;;;;;;;14.12;100.00;-25464.28;5040702;28;20011;-77
2022/05/26 01:38:59;;;;;;;;;;;;;;;14.11;100.00;-25464.00;5037089;28;19920;-77
2022/05/26 01:41:33;;;;;;;;;;;;;;;14.09;100.00;-25463.28;5034780;28;19940;-77
2022/05/26 01:44:15;;;;;;;;;;;;;;;14.07;100.00;-25462.69;5052502;28;20016;-77
2022/05/26 01:46:45;;;;;;;;;;;;;;;14.03;100.00;-25461.53;5047074;28;19927;-77
2022/05/26 01:49:29;;;;;;;;;;;;;;;13.98;100.00;-25460.34;5071501;28;19938;-77
2022/05/26 01:51:59;;;;;;;;;;;;;;;13.98;100.00;-25460.34;5077770;28;20363;-78
2022/05/26 01:54:25;;;;;;;;;;;;;;;13.96;100.00;-25459.78;5074727;28;19916;-77
2022/05/26 01:56:50;;;;;;;;;;;;;;;13.99;100.00;-25460.66;5039103;28;19966;-78
2022/05/26 01:59:21;;;;;;;;;;;;;;;13.96;100.00;-25459.78;5035153;28;19917;-78
2022/05/26 02:01:53;;;;;;;;;;;;;;;13.97;100.00;-25459.91;5035992;28;19925;-77
2022/05/26 02:04:25;;;;;;;;;;;;;;;13.96;100.00;-25459.63;5059797;28;20361;-79
2022/05/26 02:06:53;;;;;;;;;;;;;;;13.91;100.00;-25458.31;5056740;28;19917;-78
2022/05/26 02:09:26;;;;;;;;;;;;;;;13.91;100.00;-25458.31;5038966;28;19917;-79
2022/05/26 02:11:57;;;;;;;;;;;;;;;13.88;100.00;-25457.44;5038062;28;20301;-79
2022/05/26 02:14:41;;;;;;;;;;;;;;;13.88;100.00;-25457.44;5038401;28;19917;-78
2022/05/26 02:17:06;;;;;;;;;;;;;;;13.89;100.00;-25457.59;5041135;28;19927;-79
2022/05/26 02:19:37;;;;;;;;;;;;;;;13.87;100.00;-25457.00;5061672;28;20007;-80
2022/05/26 02:22:11;;;;;;;;;;;;;;;13.87;100.00;-25457.16;5074162;28;20322;-77
2022/05/26 02:24:40;;;;;;;;;;;;;;;13.83;100.00;-25456.13;5077034;28;19942;-77
2022/05/26 02:27:06;;;;;;;;;;;;;;;13.80;100.00;-25455.25;5082626;28;20014;-78
2022/05/26 02:32:16;;;;;;;;;;;;;;;13.83;100.00;-25456.13;5087558;28;20407;-76
2022/05/26 02:34:44;;;;;;;;;;;;;;;13.82;100.00;-25455.84;5077166;28;19917;-77
2022/05/26 02:37:10;;;;;;;;;;;;;;;13.83;100.00;-25455.97;5057692;28;19917;-79
2022/05/26 02:39:36;;;;;;;;;;;;;;;13.85;100.00;-25456.41;5043175;28;19964;-78
2022/05/26 02:42:01;;;;;;;;;;;;;;;13.88;100.00;-25457.44;5038009;28;19917;-79
2022/05/26 02:44:29;;;;;;;;;;;;;;;13.89;100.00;-25457.59;5037472;28;19935;-77
2022/05/26 02:47:01;;;;;;;;;;;;;;;13.86;100.00;-25456.84;5057855;28;20874;-76
2022/05/26 02:49:26;;;;;;;;;;;;;;;13.87;100.00;-25457.16;5077996;28;20105;-78
2022/05/26 02:51:54;;;;;;;;;;;;;;;13.92;100.00;-25458.47;5077307;28;20273;-78
2022/05/26 02:54:28;;;;;;;;;;;;;;;13.95;100.00;-25459.47;5077246;28;19917;-79
2022/05/26 02:57:03;;;;;;;;;;;;;;;13.91;100.00;-25458.31;5064785;28;19924;-79
2022/05/26 02:59:28;;;;;;;;;;;;;;;13.92;100.00;-25458.59;5045464;28;20547;-78
2022/05/26 03:01:57;;;;;;;;;;;;;;;13.89;100.00;-25457.59;5053790;28;19928;-79
2022/05/26 03:04:35;;;;;;;;;;;;;;;13.79;100.00;-25454.97;5057058;28;19920;-79
2022/05/26 03:07:02;;;;;;;;;;;;;;;13.80;100.00;-25455.09;5050931;28;20073;-79
2022/05/26 03:09:32;;;;;;;;;;;;;;;13.79;100.00;-25454.97;5037382;28;19924;-78
2022/05/26 03:11:58;;;;;;;;;;;;;;;13.77;100.00;-25454.22;5055604;28;19931;-79
2022/05/26 03:14:25;;;;;;;;;;;;;;;13.72;100.00;-25452.91;5076271;28;19916;-78
2022/05/26 03:16:51;;;;;;;;;;;;;;;13.71;100.00;-25452.63;5053359;28;19979;-78
2022/05/26 03:19:16;;;;;;;;;;;;;;;13.71;100.00;-25452.47;5037480;28;20281;-79
2022/05/26 03:21:42;;;;;;;;;;;;;;;13.72;100.00;-25452.78;5036756;28;19928;-78
2022/05/26 03:24:08;;;;;;;;;;;;;;;13.72;100.00;-25452.91;5036270;28;19921;-76
2022/05/26 03:26:33;;;;;;;;;;;;;;;13.74;100.00;-25453.50;5054245;28;20320;-76
2022/05/26 03:28:58;;;;;;;;;;;;;;;13.73;100.00;-25453.22;5036862;28;19932;-79
2022/05/26 03:31:24;;;;;;;;;;;;;;;13.76;100.00;-25453.94;5073795;28;20007;-79
2022/05/26 03:42:14;;;;;;;;;;;;;;;13.70;100.00;-25452.19;5074932;28;19970;-78
2022/05/26 03:44:40;;;;;;;;;;;;;;;13.64;100.00;-25450.72;5056542;28;19916;-78
2022/05/26 03:47:05;;;;;;;;;;;;;;;13.62;100.00;-25450.16;5046082;28;19943;-80
2022/05/26 03:49:31;;;;;;;;;;;;;;;13.60;100.00;-25449.41;5044894;28;19920;-79
2022/05/26 03:51:57;;;;;;;;;;;;;;;13.56;100.00;-25448.25;5072327;28;20383;-79
2022/05/26 03:54:23;;;;;;;;;;;;;;;13.57;100.00;-25448.53;5073892;28;19928;-78
2022/05/26 03:56:48;;;;;;;;;;;;;;;13.60;100.00;-25449.56;5074182;28;19916;-75
2022/05/26 03:59:13;;;;;;;;;;;;;;;13.63;100.00;-25450.28;5076339;28;20018;-76
2022/05/26 04:01:39;;;;;;;;;;;;;;;13.60;100.00;-25449.56;5059073;28;19926;-77
2022/05/26 04:04:04;;;;;;;;;;;;;;;13.62;100.00;-25450.16;5054750;28;19920;-77
2022/05/26 04:06:29;;;;;;;;;;;;;;;13.61;100.00;-25449.84;5067567;28;19963;-78
2022/05/26 04:08:55;;;;;;;;;;;;;;;13.67;100.00;-25451.31;5035539;28;19912;-78
2022/05/26 04:11:24;;;;;;;;;;;;;;;13.70;100.00;-25452.19;5058803;28;20378;-76
2022/05/26 04:13:53;;;;;;;;;;;;;;;13.70;100.00;-25452.34;5055494;28;19963;-78
2022/05/26 04:16:19;;;;;;;;;;;;;;;13.75;100.00;-25453.66;5054155;28;19916;-79
2022/05/26 04:18:45;;;;;;;;;;;;;;;13.82;100.00;-25455.69;5041996;28;19943;-79
2022/05/26 04:21:11;;;;;;;;;;;;;;;13.82;100.00;-25455.69;5035945;28;20353;-78
2022/05/26 04:23:38;;;;;;;;;;;;;;;13.78;100.00;-25454.53;5040440;28;19925;-78
2022/05/26 04:26:06;;;;;;;;;;;;;;;14.22;100.00;-25467.06;5052808;28;19917;-77
2022/05/26 04:28:31;;;;;;;;;;;;;;;14.15;100.00;-25465.16;5055451;28;19912;-79
2022/05/26 04:30:57;;;;;;;;;;;;;;;14.74;100.00;-25481.63;5055196;28;19924;-77
2022/05/26 04:33:23;;;;;;;;;;;;;;;14.39;100.00;-25471.88;5055481;28;19927;-77
2022/05/26 04:35:48;;;;;;;;;;;;;;;14.20;100.00;-25466.47;5055081;28;19955;-78
2022/05/26 04:38:13;;;;;;;;;;;;;;;14.14;100.00;-25464.72;5055379;28;20249;-79
2022/05/26 04:40:39;;;;;;;;;;;;;;;14.00;100.00;-25460.94;5055357;28;19970;-80
2022/05/26 04:43:11;;;;;;;;;;;;;;;13.99;100.00;-25460.66;5073447;28;19917;-79
2022/05/26 04:45:37;;;;;;;;;;;;;;;14.11;100.00;-25463.84;5055185;28;19927;-79
2022/05/26 04:48:03;;;;;;;;;;;;;;;14.17;100.00;-25465.75;5055366;28;19917;-78
2022/05/26 04:50:28;;;;;;;;;;;;;;;14.26;100.00;-25468.22;5055395;28;19924;-78
2022/05/26 04:52:54;;;;;;;;;;;;;;;14.30;100.00;-25469.41;5052745;28;19927;-72
2022/05/26 04:55:19;;;;;;;;;;;;;;;14.26;100.00;-25468.09;5054296;28;19978;-73
2022/05/26 04:57:44;;;;;;;;;;;;;;;14.39;100.00;-25471.72;5074273;28;19928;-76
2022/05/26 05:00:12;;;;;;;;;;;;;;;14.94;100.00;-25487.47;5092266;28;20322;-75
2022/05/26 05:02:38;;;;;;;;;;;;;;;14.67;100.00;-25479.88;5073884;28;20547;-75
2022/05/26 05:05:05;;;;;;;;;;;;;;;14.95;100.00;-25487.75;5061626;28;19988;-84
2022/05/26 05:07:30;;;;;;;;;;;;;;;16.09;100.00;-25520.03;5053202;28;19922;-76
2022/05/26 05:09:55;;;;;;;;;;;;;;;16.82;100.00;-25540.66;5054139;28;20398;-76
2022/05/26 05:12:21;;;;;;;;;;;;;;;16.77;100.00;-25539.06;5037783;28;19921;-77
2022/05/26 05:14:48;;;;;;;;;;;;;;;16.97;100.00;-25544.88;5046603;28;19954;-76
2022/05/26 05:17:14;;;;;;;;;;;;;;;16.96;100.00;-25544.56;5034107;28;19995;-78
2022/05/26 05:19:39;;;;;;;;;;;;;;;16.55;100.00;-25532.81;5033074;28;20012;-78
2022/05/26 05:22:09;;;;;;;;;;;;;;;16.24;100.00;-25524.25;5051261;28;20011;-79
2022/05/26 05:24:39;;;;;;;;;;;;;;;16.40;100.00;-25528.75;5033555;28;19968;-78
2022/05/26 05:27:10;;;;;;;;;;;;;;;16.33;100.00;-25526.72;5032661;28;19939;-76
2022/05/26 05:29:36;;;;;;;;;;;;;;;16.21;100.00;-25523.38;5051945;28;19974;-75
2022/05/26 05:32:10;;;;;;;;;;;;;;;16.22;100.00;-25523.69;5034012;28;19975;-78
2022/05/26 05:34:43;;;;;;;;;;;;;;;16.01;100.00;-25517.56;5033258;28;19917;-75
2022/05/26 05:37:09;;;;;;;;;;;;;;;16.02;100.00;-25517.88;5036688;28;20504;-75
2022/05/26 05:39:35;;;;;;;;;;;;;;;15.94;100.00;-25515.84;5037903;28;19923;-75
2022/05/26 05:42:01;;;;;;;;;;;;;;;16.02;100.00;-25518.00;5055353;28;20003;-75
2022/05/26 05:44:27;;;;;;;;;;;;;;;16.02;100.00;-25517.88;5037879;28;19921;-75
2022/05/26 05:46:57;;;;;;;;;;;;;;;16.17;100.00;-25522.22;5037685;28;19939;-76
2022/05/26 05:49:23;;;;;;;;;;;;;;;16.09;100.00;-25519.91;5037314;28;19917;-77
2022/05/26 05:51:49;;;;;;;;;;;;;;;16.44;100.00;-25529.78;5037620;28;19913;-75
2022/05/26 05:54:14;;;;;;;;;;;;;;;16.79;100.00;-25539.78;5037353;28;19917;-75
2022/05/26 05:56:40;;;;;;;;;;;;;;;16.86;100.00;-25541.69;5053036;28;19948;-76
2022/05/26 05:59:05;;;;;;;;;;;;;;;16.45;100.00;-25530.22;5037598;28;19931;-78
2022/05/26 06:01:30;;;;;;;;;;;;;;;16.45;100.00;-25530.22;5037153;28;19928;-77
2022/05/26 06:03:57;;;;;;;;;;;;;;;16.84;100.00;-25541.25;5037262;28;19921;-76
2022/05/26 06:06:22;;;;;;;;;;;;;;;17.16;100.00;-25550.22;5037437;28;19924;-76
2022/05/26 06:08:47;;;;;;;;;;;;;;;16.94;100.00;-25543.84;5037239;28;20376;-76
2022/05/26 06:11:12;;;;;;;;;;;;;;;16.81;100.00;-25540.38;5037427;28;19913;-75
2022/05/26 06:13:39;;;;;;;;;;;;;;;16.70;100.00;-25537.16;5054040;28;19921;-75
2022/05/26 06:16:04;;;;;;;;;;;;;;;16.83;100.00;-25540.94;5054971;28;19913;-76
2022/05/26 06:18:31;;;;;;;;;;;;;;;16.69;100.00;-25537.03;5037465;28;20008;-76
2022/05/26 06:21:01;;;;;;;;;;;;;;;16.80;100.00;-25539.94;5055646;28;20299;-77
2022/05/26 06:23:26;;;;;;;;;;;;;;;16.85;100.00;-25541.38;5037382;28;19972;-76
2022/05/26 06:25:51;;;;;;;;;;;;;;;17.01;100.00;-25546.03;5037785;28;20569;-76
2022/05/26 06:31:00;;;;;;;;;;;;;;;17.14;100.00;-25549.66;5055119;28;20018;-77
2022/05/26 06:39:06;;;;;;;;;;;;;;;16.95;100.00;-25544.28;5056025;28;20047;-79
2022/05/26 06:44:15;;;;;;;;;;;;;;;17.56;100.00;-25559.47;5055798;28;19943;-79
2022/05/26 06:46:40;;;;;;;;;;;;;;;18.22;100.00;-22273.28;5037897;28;19917;-80
2022/05/26 06:49:06;;;;;;;;;;;;;;;17.97;100.00;-16645.19;5038276;28;20404;-80
2022/05/26 06:51:32;;;;;;;;;;;;;;;17.39;100.00;-14652.47;5037766;28;19975;-79
2022/05/26 06:53:57;;;;;;;;;;;;;;;17.40;100.00;-16967.84;5037792;28;20356;-80
2022/05/26 06:56:22;;;;;;;;;;;;;;;17.55;100.00;-16639.22;5036271;28;19923;-79
2022/05/26 06:58:48;;;;;;;;;;;;;;;17.17;100.00;-16303.25;5035391;28;19923;-77
2022/05/26 07:01:14;;;;;;;;;;;;;;;17.31;100.00;-18288.59;5035930;28;19917;-77
2022/05/26 07:03:41;;;;;;;;;;;;;;;17.62;100.00;-20607.69;5036255;28;19962;-77
2022/05/26 07:06:12;;;;;;;;;;;;;;;17.83;100.00;-19620.19;5034954;28;19917;-79
2022/05/26 07:08:37;;;;;;;;;;;;;;;17.61;100.00;-17962.94;5036367;28;19962;-79
2022/05/26 07:11:03;;;;;;;;;;;;;;;17.97;100.00;-15983.19;5053718;28;19920;-79
2022/05/26 07:13:29;;;;;;;;;;;;;;;17.52;100.00;-12667.84;5034910;28;20407;-77
2022/05/26 07:15:54;;;;;;;;;;;;;;;17.27;100.00;-11672.88;5035938;28;19928;-80
2022/05/26 07:18:20;;;;;;;;;;;;;;;17.80;100.00;-11676.22;5036871;28;20015;-78
2022/05/26 07:20:45;;;;;;;;;;;;;;;18.91;100.00;-10023.41;5036473;28;20388;-78
2022/05/26 07:23:13;;;;;;;;;;;;;;;20.13;100.00;22041.84;5036532;28;19963;-78
2022/05/26 07:25:42;;;;;;;;;;;;;;;19.98;100.00;88321.69;5036330;28;20294;-76
2022/05/26 07:28:08;;;;;;;;;;;;;;;20.07;100.00;122587.75;5036656;28;20019;-78
2022/05/26 07:30:33;;;;;;;;;;;;;;;19.31;100.00;145418.03;5036315;28;20011;-78
2022/05/26 07:33:00;;;;;;;;;;;;;;;19.99;100.00;128764.69;5036801;28;20009;-77
2022/05/26 07:35:25;;;;;;;;;;;;;;;20.26;100.00;147817.38;5036413;28;19920;-77
2022/05/26 07:43:19;;;;;;;;;;;;;;;21.75;100.00;148187.81;5053681;28;19973;-77
2022/05/26 07:45:45;;;;;;;;;;;;;;;21.30;100.00;148076.22;5053076;28;20532;-78
2022/05/26 07:48:10;;;;;;;;;;;;;;;20.97;100.00;147995.53;5035803;28;20443;-77
2022/05/26 07:50:36;;;;;;;;;;;;;;;21.29;100.00;148074.97;5036041;28;20118;-77
2022/05/26 07:53:01;;;;;;;;;;;;;;;20.60;100.00;147901.88;5036126;28;19931;-77
2022/05/26 07:55:26;;;;;;;;;;;;;;;19.58;100.00;147648.25;5035846;28;20396;-77
2022/05/26 07:57:53;;;;;;;;;;;;;;;19.38;100.00;147599.59;5036646;28;20024;-76
2022/05/26 08:00:18;;;;;;;;;;;;;;;19.83;100.00;147709.78;5054273;28;19916;-76
2022/05/26 08:02:45;;;;;;;;;;;;;;;19.95;100.00;147740.50;5036014;28;19916;-77
2022/05/26 08:05:11;;;;;;;;;;;;;;;20.41;100.00;147854.50;5036523;28;20102;-77
2022/05/26 08:07:36;;;;;;;;;;;;;;;20.53;100.00;147885.25;5036487;28;19956;-78
2022/05/26 08:10:02;;;;;;;;;;;;;;;21.28;100.00;148071.13;5036246;28;19983;-80
2022/05/26 08:12:27;;;;;;;;;;;;;;;20.90;100.00;147976.28;5054000;28;20395;-79
2022/05/26 08:14:58;;;;;;;;;;;;;;;20.11;100.00;147778.94;5036475;28;19923;-80
2022/05/26 08:17:24;;;;;;;;;;;;;;;19.69;100.00;147676.41;5036433;28;19913;-79
2022/05/26 08:19:50;;;;;;;;;;;;;;;20.77;100.00;147945.53;5035829;28;19920;-79
2022/05/26 08:22:17;;;;;;;;;;;;;;;20.96;100.00;147991.66;5036538;28;19935;-80
2022/05/26 08:24:48;;;;;;;;;;;;;;;22.49;100.00;148372.56;5052632;28;20442;-78
2022/05/26 08:27:14;;;;;;;;;;;;;;;22.62;100.00;148404.63;5053145;28;19916;-79
2022/05/26 08:29:41;;;;;;;;;;;;;;;21.61;100.00;148154.50;5051366;28;19917;-78
2022/05/26 08:32:06;;;;;;;;;;;;;;;20.54;100.00;147887.81;5034024;28;19975;-77
2022/05/26 08:34:33;;;;;;;;;;;;;;;20.65;100.00;147914.78;5034758;28;20345;-78
2022/05/26 08:36:58;;;;;;;;;;;;;;;21.34;100.00;148087.75;5051836;28;20015;-77
2022/05/26 08:39:24;;;;;;;;;;;;;;;20.32;100.00;147832.69;5053746;28;19982;-77
2022/05/26 08:41:52;;;;;;;;;;;;;;;19.77;100.00;147695.69;5035287;28;19921;-77
2022/05/26 08:44:44;;;;;;;;;;;;;;;18.98;100.00;147499.75;5052828;28;19923;-78
2022/05/26 08:47:10;;;;;;;;;;;;;;;18.69;100.00;147425.47;5049278;28;19952;-77
2022/05/26 08:49:40;;;;;;;;;;;;;;;19.32;100.00;147584.22;5034404;28;19924;-77
2022/05/26 08:52:05;;;;;;;;;;;;;;;20.54;100.00;147886.50;5033602;28;20400;-79
2022/05/26 08:54:33;;;;;;;;;;;;;;;21.54;100.00;148135.28;5050274;28;19917;-78
2022/05/26 08:56:59;;;;;;;;;;;;;;;21.31;100.00;148080.06;5035092;28;20456;-78
2022/05/26 08:59:36;;;;;;;;;;;;;;;21.19;100.00;148048.03;5052762;28;19944;-77
2022/05/26 09:02:01;;;;;;;;;;;;;;;;;;5035181;28;20585;-79
2022/05/26 09:04:27;;;;;;;;;;;;;;;20.34;100.00;147836.53;5051661;28;19920;-78
2022/05/26 09:15:15;;;;;;;;;;;;;;;20.00;100.00;147753.31;5053058;28;19924;-80
2022/05/26 09:17:41;;;;;;;;;;;;;;;20.17;100.00;147794.31;5035042;28;19963;-78
2022/05/26 09:20:25;;;;;;;;;;;;;;;20.61;100.00;147904.47;5034462;28;20577;-78
2022/05/26 09:23:07;;;;;;;;;;;;;;;20.56;100.00;147892.94;5034787;28;19971;-78
2022/05/26 09:25:36;;;;;;;;;;;;;;;20.59;100.00;147900.63;5034766;28;20369;-76
2022/05/26 09:28:01;;;;;;;;;;;;;;;20.07;100.00;147771.25;5051649;28;20243;-79
2022/05/26 09:30:32;;;;;;;;;;;;;;;19.65;100.00;147666.16;5034747;28;19968;-78
2022/05/26 09:32:58;;;;;;;;;;;;;;;19.30;100.00;147579.13;5052292;28;19928;-78
2022/05/26 09:35:28;;;;;;;;;;;;;;;19.85;100.00;147716.16;5032526;28;19959;-80
2022/05/26 09:37:55;;;;;;;;;;;;;;;20.49;100.00;147873.72;5051431;28;19944;-79
2022/05/26 09:40:26;;;;;;;;;;;;;;;20.12;100.00;147781.47;5034869;28;19912;-80
2022/05/26 09:43:15;;;;;;;;;;;;;;;19.63;100.00;147659.78;5051432;28;19917;-80
2022/05/26 09:46:03;;;;;;;;;;;;;;;18.94;100.00;147489.53;5024528;28;19917;-80
2022/05/26 09:48:30;;;;;;;;;;;;;;;18.54;100.00;147388.41;5035015;28;19923;-80
2022/05/26 09:51:15;;;;;;;;;;;;;;;18.85;100.00;147466.50;5035029;28;19917;-81
2022/05/26 09:53:44;;;;;;;;;;;;;;;19.71;100.00;147680.25;5034625;28;19921;-81
2022/05/26 09:56:11;;;;;;;;;;;;;;;20.56;100.00;147891.66;5034999;28;19963;-80
2022/05/26 09:58:42;;;;;;;;;;;;;;;20.58;100.00;147896.78;5052674;28;19921;-80
2022/05/26 10:01:28;;;;;;;;;;;;;;;20.30;100.00;147827.59;5050799;28;19920;-79
2022/05/26 10:04:12;;;;;;;;;;;;;;;20.21;100.00;147805.84;5050758;28;19917;-79
2022/05/26 10:06:52;;;;;;;;;;;;;;;19.65;100.00;147666.16;5051137;28;20376;-78
2022/05/26 10:09:26;;;;;;;;;;;;;;;19.68;100.00;147673.84;5052104;28;19943;-80
2022/05/26 10:12:06;;;;;;;;;;;;;;;20.18;100.00;147796.84;5052350;28;19924;-78
2022/05/26 10:14:52;;;;;;;;;;;;;;;19.46;100.00;147618.78;5034752;28;20364;-79
2022/05/26 10:17:23;;;;;;;;;;;;;;;19.09;100.00;147526.63;5051152;28;20445;-78
2022/05/26 10:19:48;;;;;;;;;;;;;;;19.35;100.00;147591.91;5052316;28;19994;-78
2022/05/26 10:22:32;;;;;;;;;;;;;;;19.33;100.00;147586.81;5052959;28;19913;-78
2022/05/26 10:25:10;;;;;;;;;;;;;;;19.08;100.00;147524.09;5056046;28;19921;-78
2022/05/26 10:27:35;;;;;;;;;;;;;;;19.40;100.00;147602.16;5054699;28;19920;-77
2022/05/26 10:30:15;;;;;;;;;;;;;;;19.62;100.00;147658.47;5055169;28;19928;-75
2022/05/26 10:32:59;;;;;;;;;;;;;;;19.85;100.00;147714.88;5054391;28;19923;-78
2022/05/26 10:35:26;;;;;;;;;;;;;;;19.46;100.00;147618.78;5054316;28;19931;-78
2022/05/26 10:37:59;;;;;;;;;;;;;;;19.17;100.00;147547.13;5036875;28;19923;-77
2022/05/26 10:40:43;;;;;;;;;;;;;;;18.87;100.00;147471.59;5037522;28;19928;-78
2022/05/26 10:43:14;;;;;;;;;;;;;;;18.86;100.00;147467.75;5055676;28;20138;-78
2022/05/26 10:45:42;;;;;;;;;;;;;;;18.75;100.00;147442.16;5053676;28;20059;-78
2022/05/26 10:48:26;;;;;;;;;;;;;;;18.78;100.00;147449.81;5037739;28;19917;-79
2022/05/26 10:51:01;;;;;;;;;;;;;;;19.07;100.00;147520.25;5055359;28;19913;-79
2022/05/26 10:53:41;;;;;;;;;;;;;;;18.99;100.00;147501.06;5037590;28;19917;-79
2022/05/26 10:56:27;;;;;;;;;;;;;;;18.80;100.00;147454.94;5037743;28;19916;-79
2022/05/26 10:58:57;;;;;;;;;;;;;;;18.82;100.00;147458.78;5036888;28;19917;-79
2022/05/26 11:01:22;;;;;;;;;;;;;;;19.37;100.00;147597.06;5046196;28;19928;-80
2022/05/26 11:03:50;;;;;;;;;;;;;;;19.72;100.00;147684.09;5059932;28;20249;-78
2022/05/26 11:06:25;;;;;;;;;;;;;;;20.12;100.00;147782.78;5075386;28;19939;-80
2022/05/26 11:08:54;;;;;;;;;;;;;;;20.35;100.00;147840.38;5073368;28;19942;-81
2022/05/26 11:11:29;;;;;;;;;;;;;;;20.27;100.00;147819.91;5063851;28;19923;-80
2022/05/26 11:17:35;;;;;;;;;;;;;;;19.76;100.00;147691.78;4993829;28;19988;-82
2022/05/26 11:20:03;;;;;;;;;;;;;;;19.23;100.00;147561.19;4993167;28;19924;-80
2022/05/26 11:22:28;;;;;;;;;;;;;;;19.15;100.00;147540.72;5021286;28;20353;-80
2022/05/26 11:24:56;;;;;;;;;;;;;;;19.25;100.00;147566.34;5020218;28;20012;-80
2022/05/26 11:27:30;;;;;;;;;;;;;;;19.29;100.00;147576.56;5037258;28;19923;-79
2022/05/26 11:29:57;;;;;;;;;;;;;;;19.42;100.00;147608.59;5037090;28;19917;-80
2022/05/26 11:38:09;;;;;;;;;;;;;;;20.39;100.00;147849.38;5054240;28;19974;-80
2022/05/26 11:40:55;;;;;;;;;;;;;;;20.21;100.00;147805.84;5036540;28;20246;-79
2022/05/26 11:43:42;;;;;;;;;;;;;;;20.32;100.00;147831.44;5052850;28;19923;-80
2022/05/26 11:46:35;;;;;;;;;;;;;;;20.44;100.00;147862.19;5036649;28;20365;-79
2022/05/26 11:49:00;;;;;;;;;;;;;;;20.24;100.00;147812.22;5030995;28;19916;-79
2022/05/26 11:51:42;;;;;;;;;;;;;;;20.30;100.00;147827.59;5020449;28;20358;-79
2022/05/26 11:54:09;;;;;;;;;;;;;;;19.65;100.00;147664.91;5036120;28;20027;-78
2022/05/26 11:56:36;;;;;;;;;;;;;;;19.54;100.00;147638.00;5054212;28;19917;-79
2022/05/26 11:59:17;;;;;;;;;;;;;;;19.29;100.00;147576.56;5034843;28;19924;-79
2022/05/26 12:01:44;;;;;;;;;;;;;;;19.53;100.00;147636.75;5035324;28;20014;-79
2022/05/26 12:04:36;;;;;;;;;;;;;;;20.27;100.00;147819.91;5036583;28;19917;-80
2022/05/26 12:07:14;;;;;;;;;;;;;;;20.31;100.00;147830.16;5049759;28;20365;-79
2022/05/26 12:09:39;;;;;;;;;;;;;;;19.99;100.00;147749.47;5053463;28;20373;-80
2022/05/26 12:12:28;;;;;;;;;;;;;;;19.51;100.00;147630.31;5054189;28;19920;-80
2022/05/26 12:14:55;;;;;;;;;;;;;;;19.64;100.00;147663.63;5035174;28;20369;-78
2022/05/26 12:17:33;;;;;;;;;;;;;;;19.63;100.00;147661.06;5036368;28;19919;-78
2022/05/26 12:20:10;;;;;;;;;;;;;;;19.52;100.00;147632.91;5036101;28;20285;-79
2022/05/26 12:22:37;;;;;;;;;;;;;;;19.39;100.00;147600.91;5053223;28;19913;-79
2022/05/26 12:25:18;;;;;;;;;;;;;;;19.34;100.00;147589.38;5036130;28;19916;-79
2022/05/26 12:27:51;;;;;;;;;;;;;;;19.42;100.00;147607.28;5035972;28;20230;-79
2022/05/26 12:30:35;;;;;;;;;;;;;;;19.45;100.00;147614.97;5035781;28;19959;-79
2022/05/26 12:33:25;;;;;;;;;;;;;;;19.52;100.00;147632.91;5036147;28;19964;-79
2022/05/26 12:36:09;;;;;;;;;;;;;;;19.65;100.00;147664.91;5035753;28;20376;-79
2022/05/26 12:38:49;;;;;;;;;;;;;;;19.29;100.00;147576.56;5035478;28;19917;-80
2022/05/26 12:41:20;;;;;;;;;;;;;;;19.04;100.00;147512.56;5054032;28;20278;-79
2022/05/26 12:44:04;;;;;;;;;;;;;;;19.13;100.00;147535.63;5035099;28;19913;-79
2022/05/26 12:46:40;;;;;;;;;;;;;;;19.25;100.00;147566.34;5034945;28;19924;-78
2022/05/26 12:49:11;;;;;;;;;;;;;;;19.57;100.00;147645.69;5035752;28;19962;-80
2022/05/26 12:51:39;;;;;;;;;;;;;;;19.62;100.00;147658.47;5035480;28;19974;-80
2022/05/26 12:54:07;;;;;;;;;;;;;;;19.51;100.00;147630.31;5058596;28;19917;-80
2022/05/26 12:56:38;;;;;;;;;;;;;;;19.68;100.00;147672.56;5055615;28;19924;-78
2022/05/26 12:59:03;;;;;;;;;;;;;;;19.72;100.00;147682.84;5072281;28;19927;-80
2022/05/26 13:01:30;;;;;;;;;;;;;;;19.59;100.00;147649.53;5073388;28;19924;-79
2022/05/26 13:04:04;;;;;;;;;;;;;;;19.59;100.00;147650.78;5071028;28;19943;-80
2022/05/26 13:06:32;;;;;;;;;;;;;;;19.64;100.00;147663.63;5054775;28;20434;-79
2022/05/26 13:09:00;;;;;;;;;;;;;;;19.74;100.00;147689.22;5053206;28;19959;-78
2022/05/26 13:11:32;;;;;;;;;;;;;;;19.69;100.00;147675.16;5053998;28;19916;-79
2022/05/26 13:14:07;;;;;;;;;;;;;;;19.64;100.00;147662.31;5038546;28;20331;-79
2022/05/26 13:16:34;;;;;;;;;;;;;;;19.47;100.00;147620.09;5054416;28;19916;-79
2022/05/26 13:19:16;;;;;;;;;;;;;;;19.63;100.00;147659.78;5054298;28;20003;-79
2022/05/26 13:21:44;;;;;;;;;;;;;;;19.91;100.00;147731.53;5055042;28;20323;-78
2022/05/26 13:24:14;;;;;;;;;;;;;;;20.01;100.00;147754.56;5072608;28;19923;-79
2022/05/26 13:26:41;;;;;;;;;;;;;;;19.78;100.00;147696.94;5072105;28;19916;-78